Time;durP1;ratioP1;P1;durP2;ratioP2;P2;SDS_P1;SDS_P2;PMS_P1;PMS_P2;Temp;Humidity;BMP_temperature;BMP_pressure;BME280_temperature;BME280_humidity;BME280_pressure;Samples;Min_cycle;Max_cycle;Signal;HPM_P1;HPM_P2
2022/05/27 00:00:42;;;;;;;5.10;2.20;;;;;;;15.08;59.63;100187.02;106276;1271;23963;-68
2022/05/27 00:03:10;;;;;;;7.00;2.70;;;;;;;15.05;59.75;100185.88;106277;1270;24223;-72
2022/05/27 00:05:38;;;;;;;3.90;2.20;;;;;;;15.04;59.97;100178.27;105810;1277;26484;-70
2022/05/27 00:08:05;;;;;;;4.00;2.50;;;;;;;15.05;59.95;100177.20;105578;1278;26684;-70
2022/05/27 00:10:34;;;;;;;5.20;2.60;;;;;;;15.01;60.08;100179.09;105705;1278;23947;-73
2022/05/27 00:13:00;;;;;;;3.50;2.30;;;;;;;14.99;60.21;100175.23;105651;1277;22537;-73
2022/05/27 00:15:27;;;;;;;5.50;2.50;;;;;;;14.95;60.22;100175.36;105755;1278;22583;-72
2022/05/27 00:17:55;;;;;;;4.60;2.50;;;;;;;14.93;60.29;100174.20;105836;1277;24408;-76
2022/05/27 00:20:22;;;;;;;7.30;2.70;;;;;;;14.92;60.14;100175.98;105777;1277;25307;-70
2022/05/27 00:22:49;;;;;;;6.80;2.70;;;;;;;14.91;60.34;100174.41;105523;1277;25494;-69
2022/05/27 00:25:16;;;;;;;4.60;2.30;;;;;;;14.91;60.34;100168.21;106087;1270;22742;-70
2022/05/27 00:27:43;;;;;;;4.30;2.20;;;;;;;14.90;60.36;100160.08;106214;1270;22842;-69
2022/05/27 00:30:10;;;;;;;4.20;2.50;;;;;;;14.87;60.41;100158.41;106106;1270;22592;-69
2022/05/27 00:32:38;;;;;;;2.80;2.20;;;;;;;14.87;60.44;100155.94;106065;1270;22527;-70
2022/05/27 00:35:06;;;;;;;5.60;2.50;;;;;;;14.84;60.39;100149.80;105903;1270;22560;-71
2022/05/27 00:37:33;;;;;;;9.20;3.10;;;;;;;14.84;60.62;100151.41;106200;1270;24307;-72
2022/05/27 00:40:00;;;;;;;12.00;2.90;;;;;;;14.83;60.68;100149.30;106258;1270;22715;-71
2022/05/27 00:42:27;;;;;;;6.40;2.60;;;;;;;14.83;60.67;100151.43;105997;1270;22742;-71
2022/05/27 00:44:54;;;;;;;8.30;2.20;;;;;;;14.83;60.70;100148.23;105968;1271;22548;-73
2022/05/27 00:47:25;;;;;;;5.20;2.50;;;;;;;14.81;60.64;100143.88;106135;1271;24237;-72
2022/05/27 00:49:58;;;;;;;4.30;2.20;;;;;;;14.79;60.38;100140.55;106102;1270;22531;-69
2022/05/27 00:52:30;;;;;;;4.10;2.30;;;;;;;14.75;60.57;100135.70;105893;1270;24470;-70
2022/05/27 00:54:57;;;;;;;3.50;2.30;;;;;;;14.74;60.51;100134.48;106041;1270;22521;-69
2022/05/27 00:57:32;;;;;;;5.70;2.20;;;;;;;14.74;60.38;100137.33;105753;1276;22621;-71
2022/05/27 01:00:07;;;;;;;4.80;2.30;;;;;;;14.72;60.29;100133.31;105610;1276;24073;-73
2022/05/27 01:02:35;;;;;;;5.30;2.00;;;;;;;14.72;60.28;100134.17;105564;1278;24250;-72
2022/05/27 01:05:05;;;;;;;5.10;2.20;;;;;;;14.75;60.17;100137.66;105628;1277;25449;-73
2022/05/27 01:07:32;;;;;;;3.40;2.20;;;;;;;14.75;60.04;100142.61;105786;1276;25254;-72
2022/05/27 01:10:02;;;;;;;2.70;2.10;;;;;;;14.75;59.96;100139.44;105889;1276;22720;-84
2022/05/27 01:12:58;;;;;;;6.20;2.10;;;;;;;14.74;59.93;100138.39;105712;1277;22538;-72
2022/05/27 01:15:28;;;;;;;5.10;2.20;;;;;;;14.72;60.12;100139.33;105924;1270;24270;-73
2022/05/27 01:20:18;;;;;;;4.20;2.40;;;;;;;14.72;60.10;100134.54;106243;1270;25246;-72
2022/05/27 01:21:43;;;;;;;6.20;2.40;;;;;;;14.75;60.22;100132.16;106258;1270;22668;-72
2022/05/27 01:24:19;;;;;;;4.40;2.60;;;;;;;14.73;60.25;100127.95;106192;1270;24239;-71
2022/05/27 01:27:15;;;;;;;5.70;2.50;;;;;;;14.71;60.44;100120.20;106009;1270;22750;-73
2022/05/27 01:29:54;;;;;;;6.50;2.40;;;;;;;14.72;60.42;100120.20;106020;1271;24223;-71
2022/05/27 01:32:49;;;;;;;5.30;2.60;;;;;;;14.70;60.61;100115.98;105957;1271;25433;-71
2022/05/27 01:35:20;;;;;;;3.80;2.60;;;;;;;14.65;60.74;100109.74;105925;1270;22539;-70
2022/05/27 01:38:08;;;;;;;8.10;2.60;;;;;;;14.66;60.72;100102.45;106106;1271;24260;-72
2022/05/27 01:40:44;;;;;;;3.80;2.60;;;;;;;14.63;60.64;100093.88;105943;1273;24192;-75
2022/05/27 01:43:19;;;;;;;;;;;;;;;14.60;60.70;100084.05;106327;1270;25337;-73
2022/05/27 01:45:51;;;;;;;4.20;2.70;;;;;;;14.60;60.84;100079.07;106155;1270;25324;-74
2022/05/27 01:48:34;;;;;;;6.20;2.90;;;;;;;14.58;61.07;100067.79;106228;1270;25511;-72
2022/05/27 01:51:15;;;;;;;3.40;2.40;;;;;;;14.58;61.24;100067.11;106282;1270;25252;-72
2022/05/27 01:54:19;;;;;;;5.00;3.00;;;;;;;14.57;61.30;100063.06;106271;1267;24263;-70
2022/05/27 01:56:50;;;;;;;5.40;2.70;;;;;;;14.54;61.55;100065.27;105983;1270;25401;-71
2022/05/27 01:59:31;;;;;;;5.60;3.20;;;;;;;14.52;61.78;100061.41;106255;1271;25387;-70
2022/05/27 02:02:12;;;;;;;3.60;2.50;;;;;;;14.53;62.18;100062.81;106089;1270;22689;-71
2022/05/27 02:04:45;;;;;;;4.60;2.90;;;;;;;14.54;62.24;100056.77;106273;1270;25327;-72
2022/05/27 02:07:18;;;;;;;5.30;3.50;;;;;;;14.57;62.36;100050.64;105921;1274;24595;-73
2022/05/27 02:09:56;;;;;;;3.90;2.90;;;;;;;14.60;62.46;100055.51;105930;1274;25300;-74
2022/05/27 02:12:37;;;;;;;4.50;3.00;;;;;;;14.61;62.54;100061.84;105887;1274;23949;-73
2022/05/27 02:15:13;;;;;;;5.60;2.80;;;;;;;14.59;62.82;100059.44;105690;1274;25357;-83
2022/05/27 02:17:47;;;;;;;6.20;2.80;;;;;;;14.60;62.66;100059.23;105717;1274;24261;-71
2022/05/27 02:20:22;;;;;;;5.80;2.90;;;;;;;14.61;62.71;100051.95;105784;1274;23931;-73
2022/05/27 02:22:58;;;;;;;3.70;2.60;;;;;;;14.57;62.85;100040.70;105783;1276;24231;-73
2022/05/27 02:25:43;;;;;;;7.10;2.50;;;;;;;14.57;62.85;100043.91;106105;1271;24310;-71
2022/05/27 02:28:17;;;;;;;4.70;2.50;;;;;;;14.55;62.75;100047.67;106136;1271;23938;-73
2022/05/27 02:30:47;;;;;;;4.80;2.60;;;;;;;14.56;62.86;100042.89;106121;1271;25254;-74
2022/05/27 02:36:35;;;;;;;6.00;2.80;;;;;;;14.62;62.69;100034.36;106193;1273;22717;-76
2022/05/27 02:39:04;;;;;;;4.90;3.10;;;;;;;14.62;62.68;100030.64;106163;1273;22568;-76
2022/05/27 02:41:37;;;;;;;3.90;2.30;;;;;;;14.64;62.43;100035.03;106063;1273;22564;-76
2022/05/27 02:44:38;;;;;;;4.90;2.70;;;;;;;14.64;62.44;100024.38;106105;1271;25599;-74
2022/05/27 02:47:28;;;;;;;8.30;2.70;;;;;;;14.66;62.18;100022.37;106247;1272;22547;-74
2022/05/27 02:50:12;;;;;;;4.50;3.00;;;;;;;14.64;62.21;100013.22;106231;1271;22571;-72
2022/05/27 02:53:04;;;;;;;3.30;2.30;;;;;;;14.64;62.17;100016.57;106168;1271;25673;-75
2022/05/27 02:55:43;;;;;;;5.30;3.00;;;;;;;14.64;62.07;100017.66;105836;1276;23405;-72
2022/05/27 02:58:10;;;;;;;6.30;2.40;;;;;;;14.65;62.11;100018.48;105778;1274;22573;-73
2022/05/27 03:00:39;;;;;;;2.30;2.10;;;;;;;14.65;62.00;100015.33;105874;1276;22543;-73
2022/05/27 03:03:07;;;;;;;3.90;2.80;;;;;;;14.64;61.91;100015.02;106105;1274;22872;-72
2022/05/27 03:05:53;;;;;;;5.70;2.90;;;;;;;14.61;62.12;100016.31;105851;1276;23149;-73
2022/05/27 03:08:28;;;;;;;4.90;3.20;;;;;;;14.61;62.26;100007.10;106001;1274;25325;-73
2022/05/27 03:11:24;;;;;;;5.50;3.00;;;;;;;14.61;62.05;100004.07;105795;1274;24228;-72
2022/05/27 03:14:10;;;;;;;5.50;3.40;;;;;;;14.62;62.20;99999.61;105892;1271;22568;-74
2022/05/27 03:16:56;;;;;;;6.00;2.50;;;;;;;14.59;62.19;99997.59;106212;1271;25525;-74
2022/05/27 03:19:30;;;;;;;4.20;2.50;;;;;;;14.59;62.13;99993.70;105723;1276;25486;-74
2022/05/27 03:22:12;;;;;;;4.00;2.60;;;;;;;14.59;62.12;99992.11;105868;1276;22541;-72
2022/05/27 03:25:21;;;;;;;4.70;2.40;;;;;;;14.59;61.95;99991.04;105971;1276;22572;-72
2022/05/27 03:27:54;;;;;;;4.80;2.70;;;;;;;14.59;61.92;99982.02;105852;1277;22614;-71
2022/05/27 03:30:31;;;;;;;4.70;2.40;;;;;;;14.59;61.97;99980.05;106010;1276;22851;-72
2022/05/27 03:32:58;;;;;;;4.00;2.40;;;;;;;14.62;61.84;99982.25;105766;1276;23097;-72
2022/05/27 03:35:30;;;;;;;8.70;3.00;;;;;;;14.64;61.72;99979.91;105931;1277;24495;-72
2022/05/27 03:38:19;;;;;;;5.40;2.70;;;;;;;14.65;61.64;99976.51;105941;1271;22573;-70
2022/05/27 03:41:17;;;;;;;6.40;2.70;;;;;;;14.66;61.51;99976.48;106026;1273;25369;-71
2022/05/27 03:43:45;;;;;;;2.90;2.00;;;;;;;14.67;61.56;99967.73;105998;1271;25361;-70
2022/05/27 03:46:12;;;;;;;4.80;2.20;;;;;;;14.67;61.63;99964.36;106134;1271;23161;-70
2022/05/27 03:48:39;;;;;;;4.30;2.30;;;;;;;14.64;61.60;99959.17;105986;1271;25410;-75
2022/05/27 03:51:17;;;;;;;6.80;2.10;;;;;;;14.63;61.94;99959.21;106019;1271;25480;-73
2022/05/27 03:56:36;;;;;;;4.60;2.60;;;;;;;14.59;62.63;99956.85;106163;1271;25258;-78
2022/05/27 03:59:04;;;;;;;5.60;2.80;;;;;;;14.60;62.83;99957.70;106107;1271;22870;-75
2022/05/27 04:01:33;;;;;;;5.40;3.10;;;;;;;14.59;63.19;99959.86;106113;1273;22552;-76
2022/05/27 04:04:04;;;;;;;5.10;3.50;;;;;;;14.56;63.56;99954.45;106062;1273;22535;-72
2022/05/27 04:06:31;;;;;;;6.00;3.10;;;;;;;14.54;63.76;99951.71;106217;1272;22535;-79
2022/05/27 04:08:59;;;;;;;7.30;3.20;;;;;;;14.51;64.15;99954.45;106294;1271;22470;-77
2022/05/27 04:11:27;;;;;;;4.30;2.80;;;;;;;14.49;64.63;99953.80;106523;1271;22688;-80
2022/05/27 04:13:55;;;;;;;3.40;3.10;;;;;;;14.46;64.98;99949.65;106177;1271;23091;-79
2022/05/27 04:16:22;;;;;;;8.20;3.90;;;;;;;14.44;65.59;99950.08;106137;1271;25418;-76
2022/05/27 04:18:49;;;;;;;10.50;4.20;;;;;;;14.39;66.02;99946.50;106188;1273;24244;-78
2022/05/27 04:21:17;;;;;;;5.90;3.60;;;;;;;14.35;66.51;99945.38;106195;1271;22536;-73
2022/05/27 04:23:44;;;;;;;6.30;3.60;;;;;;;14.36;66.80;99941.64;106301;1271;25316;-80
2022/05/27 04:26:11;;;;;;;5.70;3.20;;;;;;;14.35;67.11;99943.79;106169;1270;22546;-84
2022/05/27 04:28:38;;;;;;;8.10;4.30;;;;;;;14.33;67.42;99944.02;106198;1270;25249;-82
2022/05/27 04:31:04;;;;;;;6.00;4.00;;;;;;;14.29;67.73;99940.63;106115;1271;26606;-82
2022/05/27 04:33:31;;;;;;;7.10;4.30;;;;;;;14.25;68.03;99943.92;106018;1271;22690;-81
2022/05/27 04:36:00;;;;;;;4.10;3.50;;;;;;;14.22;68.48;99943.31;106106;1271;22554;-78
2022/05/27 04:38:27;;;;;;;9.60;4.30;;;;;;;14.18;68.86;99941.14;106248;1271;22674;-80
2022/05/27 04:40:55;;;;;;;7.10;4.80;;;;;;;14.11;69.66;99936.76;106156;1270;22624;-80
2022/05/27 04:43:22;;;;;;;8.00;5.00;;;;;;;14.05;70.04;99937.09;106273;1270;24298;-81
2022/05/27 04:45:50;;;;;;;5.30;4.10;;;;;;;14.02;70.37;99938.08;106196;1270;22611;-79
2022/05/27 04:48:18;;;;;;;8.40;5.50;;;;;;;13.97;70.44;99942.67;106232;1271;24163;-83
2022/05/27 04:50:46;;;;;;;9.90;5.10;;;;;;;13.97;70.75;99939.65;106229;1271;22553;-80
2022/05/27 04:53:13;;;;;;;9.20;5.60;;;;;;;14.00;71.04;99939.90;106190;1271;22534;-79
2022/05/27 04:55:41;;;;;;;7.10;4.60;;;;;;;13.98;71.21;99942.79;106325;1271;24237;-79
2022/05/27 04:58:11;;;;;;;6.00;4.90;;;;;;;13.98;71.32;99939.61;106275;1271;22532;-77
2022/05/27 05:00:41;;;;;;;7.00;6.20;;;;;;;13.99;71.51;99942.60;106730;1270;22540;-90
2022/05/27 05:03:10;;;;;;;6.90;6.00;;;;;;;13.99;71.70;99945.59;106353;1271;24246;-79
2022/05/27 05:05:38;;;;;;;7.10;5.20;;;;;;;14.00;72.00;99939.90;106265;1271;22614;-79
2022/05/27 05:08:22;;;;;;;10.70;5.60;;;;;;;14.03;72.13;99940.00;106433;1270;22555;-77
2022/05/27 05:10:49;;;;;;;8.80;4.80;;;;;;;14.08;72.27;99936.29;106501;1270;22559;-77
2022/05/27 05:13:16;;;;;;;7.40;5.90;;;;;;;14.10;72.25;99932.89;106174;1271;26499;-78
2022/05/27 05:15:43;;;;;;;7.60;6.80;;;;;;;14.13;72.61;99927.86;106588;1270;22528;-79
2022/05/27 05:18:10;;;;;;;9.20;5.80;;;;;;;14.20;72.78;99925.13;106123;1270;24267;-83
2022/05/27 05:20:37;;;;;;;8.80;5.20;;;;;;;14.25;72.53;99923.20;105892;1276;24169;-81
2022/05/27 05:23:04;;;;;;;8.30;5.90;;;;;;;14.23;72.41;99925.05;106001;1276;26476;-82
2022/05/27 05:25:33;;;;;;;10.20;6.40;;;;;;;14.19;72.68;99919.50;105922;1276;22566;-81
2022/05/27 05:28:01;;;;;;;10.90;6.50;;;;;;;14.15;72.87;99916.09;106069;1276;26503;-80
2022/05/27 05:30:34;;;;;;;10.40;5.60;;;;;;;14.15;72.95;99918.23;106998;1276;25921;-80
2022/05/27 05:33:01;;;;;;;5.80;5.20;;;;;;;14.13;73.05;99915.98;107810;1276;22562;-78
2022/05/27 05:35:28;;;;;;;6.70;5.20;;;;;;;14.13;73.14;99912.09;108501;1276;22571;-82
2022/05/27 05:37:55;;;;;;;8.10;6.30;;;;;;;14.09;73.06;99916.24;108569;1276;22681;-78
2022/05/27 05:40:22;;;;;;;10.40;5.70;;;;;;;14.06;73.33;99910.50;109206;1274;22843;-78
2022/05/27 05:42:50;;;;;;;10.10;6.10;;;;;;;14.04;73.62;99906.14;109129;1276;22611;-78
2022/05/27 05:45:19;;;;;;;8.00;5.50;;;;;;;14.03;73.42;99910.42;109287;1276;22618;-77
2022/05/27 05:47:47;;;;;;;6.10;5.50;;;;;;;14.02;73.84;99905.68;109404;1275;22671;-78
2022/05/27 05:50:15;;;;;;;8.90;5.10;;;;;;;13.98;73.83;99901.91;108983;1280;23010;-78
2022/05/27 05:52:42;;;;;;;7.10;5.60;;;;;;;13.96;74.01;99898.08;108056;1287;22595;-78
2022/05/27 05:55:12;;;;;;;6.90;5.70;;;;;;;13.96;74.30;99898.61;108014;1283;22587;-77
2022/05/27 05:57:43;;;;;;;8.50;5.30;;;;;;;13.97;74.35;99891.66;108209;1282;22577;-78
2022/05/27 06:00:13;;;;;;;10.00;5.30;;;;;;;13.98;74.51;99892.17;108053;1284;22770;-78
2022/05/27 06:02:40;;;;;;;9.80;6.20;;;;;;;14.03;74.67;99885.30;106595;1284;22624;-80
2022/05/27 06:05:09;;;;;;;6.80;5.60;;;;;;;14.08;74.58;99879.81;105405;1282;24944;-78
2022/05/27 06:07:36;;;;;;;8.90;5.80;;;;;;;14.09;74.67;99874.48;105322;1276;23029;-79
2022/05/27 06:10:05;;;;;;;6.00;5.50;;;;;;;14.11;74.85;99872.27;105746;1270;25378;-78
2022/05/27 06:12:34;;;;;;;10.80;5.60;;;;;;;14.15;74.93;99871.81;105884;1276;23219;-79
2022/05/27 06:15:02;;;;;;;10.40;4.90;;;;;;;14.18;75.07;99866.41;105727;1278;25386;-77
2022/05/27 06:17:30;;;;;;;8.00;6.10;;;;;;;14.17;75.08;99853.69;106192;1275;22935;-79
2022/05/27 06:19:57;;;;;;;11.90;5.50;;;;;;;14.22;75.08;99861.48;107408;1276;22851;-77
2022/05/27 06:22:24;;;;;;;5.30;4.70;;;;;;;14.22;74.90;99857.77;106515;1276;24442;-81
2022/05/27 06:24:51;;;;;;;10.10;4.80;;;;;;;14.24;75.03;99857.73;105283;1281;22553;-79
2022/05/27 06:27:19;;;;;;;8.00;5.60;;;;;;;14.29;75.13;99856.13;105321;1282;25375;-79
2022/05/27 06:35:35;;;;;;;6.00;4.80;;;;;;;14.46;75.30;99855.22;104873;1287;22738;-79
2022/05/27 06:38:02;;;;;;;10.10;4.60;;;;;;;14.50;75.16;99854.02;104976;1285;25571;-76
2022/05/27 06:40:28;;;;;;;6.10;5.50;;;;;;;14.51;74.94;99845.67;104984;1285;23020;-82
2022/05/27 06:42:56;;;;;;;8.70;5.40;;;;;;;14.55;74.94;99850.48;105051;1280;22956;-80
2022/05/27 06:45:24;;;;;;;6.70;4.60;;;;;;;14.52;75.21;99844.75;105279;1282;22616;-79
2022/05/27 06:47:52;;;;;;;7.10;4.50;;;;;;;14.44;75.31;99841.81;105401;1281;22563;-78
2022/05/27 06:50:19;;;;;;;5.70;4.60;;;;;;;14.47;75.57;99841.52;105134;1281;25486;-78
2022/05/27 06:52:50;;;;;;;12.50;5.30;;;;;;;14.46;75.78;99837.70;105526;1282;22616;-78
2022/05/27 06:55:17;;;;;;;7.80;5.10;;;;;;;14.45;75.69;99832.39;106088;1276;25719;-79
2022/05/27 06:57:44;;;;;;;5.10;4.50;;;;;;;14.52;75.71;99839.80;105583;1281;22548;-79
2022/05/27 07:00:12;;;;;;;5.70;4.90;;;;;;;14.56;75.54;99832.56;105276;1281;25235;-78
2022/05/27 07:02:39;;;;;;;4.90;4.30;;;;;;;14.61;75.73;99827.61;105388;1281;24227;-78
2022/05/27 07:05:07;;;;;;;5.40;4.80;;;;;;;14.63;75.67;99826.11;105449;1281;22567;-80
2022/05/27 07:07:35;;;;;;;6.80;5.20;;;;;;;14.71;75.80;99816.63;104695;1286;22824;-81
2022/05/27 07:10:02;;;;;;;8.60;5.40;;;;;;;14.79;75.72;99813.34;105409;1282;22538;-76
2022/05/27 07:12:30;;;;;;;6.10;5.20;;;;;;;14.85;75.48;99825.38;105477;1281;23355;-78
2022/05/27 07:14:57;;;;;;;8.00;5.20;;;;;;;14.88;75.04;99813.05;105270;1282;22533;-75
2022/05/27 07:17:24;;;;;;;8.60;5.20;;;;;;;14.89;75.06;99816.38;105945;1277;24384;-78
2022/05/27 07:19:51;;;;;;;6.60;5.10;;;;;;;14.90;74.87;99806.05;105710;1276;22852;-78
2022/05/27 07:22:18;;;;;;;4.90;4.40;;;;;;;14.97;74.99;99809.16;105639;1276;24333;-79
2022/05/27 07:24:45;;;;;;;6.80;4.60;;;;;;;14.97;74.63;99809.89;105600;1275;25258;-78
2022/05/27 07:27:12;;;;;;;8.60;4.60;;;;;;;14.95;75.00;99810.85;106094;1273;22534;-78
2022/05/27 07:29:39;;;;;;;6.40;4.80;;;;;;;14.94;74.86;99813.02;106126;1270;22529;-78
2022/05/27 07:32:06;;;;;;;6.70;5.10;;;;;;;14.94;74.85;99814.06;106102;1270;22525;-79
2022/05/27 07:34:33;;;;;;;7.80;4.80;;;;;;;14.92;74.84;99809.17;106017;1270;25246;-79
2022/05/27 07:37:00;;;;;;;7.30;5.10;;;;;;;14.89;74.99;99808.93;106011;1271;25297;-77
2022/05/27 07:39:27;;;;;;;8.70;4.50;;;;;;;14.93;75.20;99804.52;106176;1270;25377;-78
2022/05/27 07:41:54;;;;;;;7.10;4.40;;;;;;;14.97;74.71;99801.36;106056;1271;22551;-77
2022/05/27 07:44:22;;;;;;;6.50;4.80;;;;;;;14.98;74.92;99799.58;106133;1270;24293;-78
2022/05/27 07:46:53;;;;;;;5.20;3.90;;;;;;;14.98;74.69;99790.88;106083;1271;22535;-79
2022/05/27 07:49:22;;;;;;;6.00;4.30;;;;;;;15.04;74.60;99802.70;106163;1273;22577;-80
2022/05/27 07:52:06;;;;;;;5.10;4.30;;;;;;;15.10;74.26;99793.96;106230;1270;22515;-79
2022/05/27 07:54:33;;;;;;;7.70;5.10;;;;;;;15.14;74.07;99785.85;106494;1270;22579;-78
2022/05/27 07:57:00;;;;;;;6.70;5.00;;;;;;;15.17;73.81;99792.85;106623;1271;24331;-78
2022/05/27 07:59:28;;;;;;;6.00;4.30;;;;;;;15.13;73.59;99795.45;107233;1273;25305;-76
2022/05/27 08:01:55;;;;;;;5.50;3.90;;;;;;;15.09;73.64;99795.41;107728;1270;22804;-76
2022/05/27 08:04:22;;;;;;;4.40;4.00;;;;;;;15.05;73.72;99787.94;108044;1271;22641;-77
2022/05/27 08:06:49;;;;;;;5.50;4.70;;;;;;;15.03;73.84;99787.13;107565;1270;23339;-76
2022/05/27 08:09:16;;;;;;;6.20;4.00;;;;;;;15.07;74.01;99779.20;107559;1270;25424;-78
2022/05/27 08:11:43;;;;;;;7.30;4.30;;;;;;;15.08;73.91;99781.10;106875;1270;25240;-79
2022/05/27 08:14:10;;;;;;;7.10;4.30;;;;;;;15.05;73.78;99781.59;106509;1270;22528;-80
2022/05/27 08:16:39;;;;;;;5.60;4.80;;;;;;;15.02;73.97;99779.06;106292;1270;23928;-78
2022/05/27 08:19:07;;;;;;;7.80;4.90;;;;;;;15.02;74.14;99773.54;106586;1270;22741;-79
2022/05/27 08:21:36;;;;;;;6.40;4.30;;;;;;;14.99;74.17;99772.41;107035;1271;22482;-79
2022/05/27 08:24:05;;;;;;;5.40;4.80;;;;;;;14.94;74.35;99763.36;107585;1272;23879;-77
2022/05/27 08:26:32;;;;;;;4.60;3.90;;;;;;;14.95;74.57;99763.16;108287;1270;25291;-76
2022/05/27 08:28:59;;;;;;;6.70;4.80;;;;;;;14.98;74.54;99769.61;108345;1272;22540;-77
2022/05/27 08:31:25;;;;;;;7.80;5.60;;;;;;;15.03;74.58;99773.68;108664;1270;22527;-76
2022/05/27 08:39:24;;;;;;;9.30;4.80;;;;;;;15.01;74.22;99778.52;107108;1270;22540;-76
2022/05/27 08:42:26;;;;;;;7.30;4.80;;;;;;;15.04;74.46;99774.87;107193;1271;22842;-77
2022/05/27 08:45:19;;;;;;;8.10;4.90;;;;;;;15.05;74.23;99777.52;107609;1270;22774;-76
2022/05/27 08:47:59;;;;;;;6.30;4.40;;;;;;;15.05;74.26;99783.87;107898;1270;22589;-76
2022/05/27 08:50:26;;;;;;;7.10;4.40;;;;;;;15.06;74.31;99785.23;107732;1270;22695;-79
2022/05/27 08:53:22;;;;;;;7.30;4.60;;;;;;;15.05;74.21;99789.73;106552;1270;22571;-77
2022/05/27 09:01:42;;;;;;;5.20;3.70;;;;;;;15.02;74.26;99791.44;106132;1276;22759;-77
2022/05/27 09:04:22;;;;;;;6.10;4.70;;;;;;;15.08;74.20;99796.71;105972;1276;22725;-79
2022/05/27 09:06:55;;;;;;;5.30;3.90;;;;;;;15.23;74.02;99800.04;106204;1275;22550;-79
2022/05/27 09:09:25;;;;;;;5.20;3.50;;;;;;;15.33;73.25;99801.96;105671;1276;25366;-79
2022/05/27 09:12:24;;;;;;;6.00;4.20;;;;;;;15.33;72.89;99806.23;105899;1275;25242;-79
2022/05/27 09:14:56;;;;;;;5.20;4.20;;;;;;;15.34;73.02;99799.97;105937;1276;26115;-78
2022/05/27 09:17:39;;;;;;;3.70;3.40;;;;;;;15.44;73.41;99795.17;105989;1276;25485;-79
2022/05/27 09:20:32;;;;;;;2.90;2.70;;;;;;;15.53;72.72;99801.19;105730;1276;24216;-79
2022/05/27 09:23:20;;;;;;;4.10;3.00;;;;;;;15.48;72.06;99787.77;105749;1278;22552;-78
2022/05/27 09:26:00;;;;;;;6.60;3.80;;;;;;;15.46;72.18;99784.60;106003;1270;22714;-79
2022/05/27 09:28:46;;;;;;;3.30;2.90;;;;;;;15.50;72.08;99785.55;106160;1271;22656;-79
2022/05/27 09:31:22;;;;;;;3.20;2.90;;;;;;;15.52;71.57;99785.80;106069;1273;24211;-78
2022/05/27 09:33:54;;;;;;;3.00;2.80;;;;;;;15.57;70.88;99787.21;106107;1271;25931;-80
2022/05/27 09:36:34;;;;;;;3.70;2.60;;;;;;;15.61;70.13;99796.46;106120;1270;24239;-80
2022/05/27 09:39:10;;;;;;;4.10;2.50;;;;;;;15.64;69.30;99798.83;105847;1276;22985;-80
2022/05/27 09:41:45;;;;;;;4.20;2.90;;;;;;;15.67;69.17;99799.78;105875;1276;22574;-79
2022/05/27 09:44:35;;;;;;;3.90;2.70;;;;;;;15.64;68.33;99808.44;105797;1276;22700;-78
2022/05/27 09:47:04;;;;;;;3.30;2.50;;;;;;;15.67;67.68;99809.56;105964;1276;25398;-79
2022/05/27 09:49:32;;;;;;;2.30;2.10;;;;;;;15.59;67.67;99804.73;105297;1282;25703;-78
2022/05/27 09:52:01;;;;;;;3.30;2.40;;;;;;;15.59;67.47;99816.25;106716;1281;22560;-77
2022/05/27 09:54:49;;;;;;;2.30;2.10;;;;;;;15.57;67.45;99815.80;108078;1281;22570;-78
2022/05/27 09:57:27;;;;;;;4.00;2.40;;;;;;;15.53;67.41;99817.02;106557;1276;23992;-79
2022/05/27 09:59:58;;;;;;;;;;;;;;;15.49;67.83;99820.02;105970;1276;23948;-79
2022/05/27 10:02:34;;;;;;;2.60;2.10;;;;;;;15.50;67.61;99825.30;105867;1276;22541;-81
2022/05/27 10:05:01;;;;;;;5.00;2.50;;;;;;;15.49;67.70;99833.68;106110;1276;22596;-79
2022/05/27 10:07:31;;;;;;;2.70;2.10;;;;;;;15.51;67.82;99829.52;106153;1270;24269;-81
2022/05/27 10:10:35;;;;;;;5.00;2.20;;;;;;;15.47;67.21;99819.74;106309;1270;22854;-83
2022/05/27 10:13:30;;;;;;;2.60;2.40;;;;;;;15.39;67.40;99814.73;105988;1271;24232;-81
2022/05/27 10:16:08;;;;;;;4.10;2.10;;;;;;;15.34;67.25;99816.66;106158;1273;25406;-79
2022/05/27 10:18:35;;;;;;;5.10;2.10;;;;;;;15.27;67.43;99810.92;106108;1273;22538;-83
2022/05/27 10:21:16;;;;;;;5.50;2.20;;;;;;;15.21;67.13;99773.36;105884;1276;24680;-79
2022/05/27 10:23:46;;;;;;;3.30;1.90;;;;;;;15.12;67.23;99760.73;105949;1275;22558;-78
2022/05/27 10:26:29;;;;;;;4.10;2.00;;;;;;;15.07;67.31;99771.73;105734;1276;22873;-80
2022/05/27 10:29:06;;;;;;;1.70;1.60;;;;;;;15.05;67.09;99783.52;105777;1276;22537;-77
2022/05/27 10:31:34;;;;;;;1.90;1.70;;;;;;;15.01;66.63;99774.63;105883;1275;22550;-81
2022/05/27 10:34:03;;;;;;;2.80;1.90;;;;;;;14.92;66.13;99761.31;105972;1276;22578;-79
2022/05/27 10:36:52;;;;;;;3.90;1.90;;;;;;;14.86;65.67;99745.22;105837;1278;23650;-78
2022/05/27 10:39:36;;;;;;;2.70;2.10;;;;;;;14.84;65.57;99736.23;105948;1270;22676;-80
2022/05/27 10:42:22;;;;;;;2.80;1.20;;;;;;;14.85;63.33;99713.70;106065;1273;23930;-79
2022/05/27 10:44:58;;;;;;;1.80;1.10;;;;;;;14.87;60.58;99721.81;105930;1276;24366;-76
2022/05/27 10:47:40;;;;;;;;;;;;;;;14.88;60.92;99678.15;105931;1276;25453;-80
2022/05/27 10:50:29;;;;;;;1.80;1.30;;;;;;;14.85;60.30;99665.68;106013;1275;26153;-82
2022/05/27 10:53:07;;;;;;;1.30;1.20;;;;;;;14.82;59.65;99669.85;105956;1277;22561;-81
2022/05/27 10:56:15;;;;;;;1.70;1.10;;;;;;;14.76;59.97;99706.38;105724;1276;22691;-79
2022/05/27 11:02:15;;;;;;;2.70;1.50;;;;;;;14.75;59.61;99714.05;105952;1276;23657;-79
2022/05/27 11:05:01;;;;;;;1.10;1.10;;;;;;;14.75;58.92;99710.66;105470;1278;22533;-79
2022/05/27 11:07:40;;;;;;;1.30;1.20;;;;;;;14.78;58.97;99702.08;105665;1278;25391;-76
2022/05/27 11:10:25;;;;;;;2.40;1.50;;;;;;;14.78;58.84;99710.92;105675;1277;22559;-77
2022/05/27 11:16:29;;;;;;;2.60;1.30;;;;;;;14.85;59.04;99690.81;105803;1280;24096;-79
2022/05/27 11:19:08;;;;;;;1.70;1.10;;;;;;;14.88;59.12;99716.79;105713;1278;22532;-76
2022/05/27 11:21:48;;;;;;;2.10;1.30;;;;;;;14.95;58.86;99722.56;105194;1284;23113;-78
2022/05/27 11:24:46;;;;;;;5.20;1.30;;;;;;;14.99;57.59;99705.05;105704;1278;24814;-78
2022/05/27 11:27:36;;;;;;;2.20;1.30;;;;;;;15.04;58.06;99691.55;105602;1278;23097;-79
2022/05/27 11:30:48;;;;;;;2.20;1.30;;;;;;;15.10;57.07;99702.31;105658;1277;22580;-78
2022/05/27 11:33:18;;;;;;;3.50;1.20;;;;;;;15.15;56.86;99704.09;105683;1278;22552;-78
2022/05/27 11:36:10;;;;;;;2.10;1.30;;;;;;;15.12;56.57;99704.88;105625;1278;24265;-82
2022/05/27 11:38:52;;;;;;;1.60;1.30;;;;;;;15.13;55.42;99689.27;105535;1278;280072;-81
2022/05/27 11:41:25;;;;;;;2.70;1.10;;;;;;;15.10;55.53;99692.52;106302;1273;25426;-80
2022/05/27 11:44:09;;;;;;;1.80;1.30;;;;;;;15.14;55.60;99690.80;106741;1274;24267;-79
2022/05/27 11:46:51;;;;;;;1.70;1.20;;;;;;;15.21;56.03;99702.05;107340;1273;22582;-77
2022/05/27 11:49:52;;;;;;;1.60;1.20;;;;;;;15.28;55.70;99704.27;107559;1273;22547;-78
2022/05/27 11:52:31;;;;;;;3.90;1.50;;;;;;;15.32;54.65;99725.56;108487;1273;22531;-78
2022/05/27 11:55:38;;;;;;;1.40;1.10;;;;;;;15.29;54.32;99703.52;108492;1273;22532;-78
2022/05/27 11:58:20;;;;;;;2.00;1.00;;;;;;;15.32;54.02;99700.20;108667;1270;22591;-79
2022/05/27 12:01:11;;;;;;;1.20;0.90;;;;;;;15.30;53.47;99705.08;108790;1273;25241;-78
2022/05/27 12:04:11;;;;;;;2.60;1.00;;;;;;;15.29;53.98;99701.02;108810;1273;22542;-78
2022/05/27 12:06:57;;;;;;;1.80;1.20;;;;;;;15.24;53.60;99694.30;109184;1273;22529;-77
2022/05/27 12:10:15;;;;;;;2.70;1.10;;;;;;;15.21;53.51;99684.69;109104;1273;23005;-77
2022/05/27 12:13:06;;;;;;;1.90;1.40;;;;;;;15.17;53.28;99680.24;109401;1273;22476;-78
2022/05/27 12:15:44;;;;;;;1.80;1.30;;;;;;;15.15;53.50;99674.10;108325;1274;22549;-78
2022/05/27 12:18:24;;;;;;;3.40;1.20;;;;;;;15.12;53.28;99667.83;108225;1273;23235;-77
2022/05/27 12:20:51;;;;;;;2.40;1.40;;;;;;;15.09;53.67;99655.14;106850;1273;25666;-78
2022/05/27 12:23:24;;;;;;;1.70;1.30;;;;;;;15.13;54.01;99680.21;106347;1273;25375;-79
2022/05/27 12:25:55;;;;;;;2.30;1.40;;;;;;;15.20;53.56;99674.25;106273;1273;24305;-78
2022/05/27 12:28:29;;;;;;;1.40;1.00;;;;;;;15.20;53.55;99663.59;106309;1273;22640;-78